sensor_id;sensor_type;location;lat;lon;timestamp;pressure;altitude;pressure_sealevel;temperature;humidity
60676;BME280;46716;38.014;-7.874;2022-11-30T00:00:48;100215.03;;;4.20;100.00
60676;BME280;46716;38.014;-7.874;2022-11-30T00:02:49;100208.13;;;4.12;100.00
60676;BME280;46716;38.014;-7.874;2022-11-30T00:04:55;100220.34;;;4.12;100.00
60676;BME280;46716;38.014;-7.874;2022-11-30T00:06:56;100223.81;;;4.11;100.00
60676;BME280;46716;38.014;-7.874;2022-11-30T00:08:57;100195.34;;;3.92;100.00
60676;BME280;46716;38.014;-7.874;2022-11-30T00:10:58;100223.94;;;4.04;100.00
60676;BME280;46716;38.014;-7.874;2022-11-30T00:12:59;100202.22;;;3.99;100.00
60676;BME280;46716;38.014;-7.874;2022-11-30T00:15:00;100214.38;;;4.00;100.00
60676;BME280;46716;38.014;-7.874;2022-11-30T00:17:01;100205.72;;;3.98;100.00
60676;BME280;46716;38.014;-7.874;2022-11-30T00:19:02;100212.69;;;3.96;100.00
60676;BME280;46716;38.014;-7.874;2022-11-30T00:21:06;100204.09;;;3.89;100.00
60676;BME280;46716;38.014;-7.874;2022-11-30T00:23:08;100212.75;;;3.91;100.00
60676;BME280;46716;38.014;-7.874;2022-11-30T00:25:09;100211.94;;;3.89;100.00
60676;BME280;46716;38.014;-7.874;2022-11-30T00:27:10;100212.00;;;3.83;100.00
60676;BME280;46716;38.014;-7.874;2022-11-30T00:29:11;100228.47;;;3.87;100.00
60676;BME280;46716;38.014;-7.874;2022-11-30T00:31:14;100211.31;;;3.70;100.00
60676;BME280;46716;38.014;-7.874;2022-11-30T00:33:15;100230.41;;;3.72;100.00
60676;BME280;46716;38.014;-7.874;2022-11-30T00:35:16;100227.03;;;3.64;100.00
60676;BME280;46716;38.014;-7.874;2022-11-30T00:37:17;100226.19;;;3.60;100.00
60676;BME280;46716;38.014;-7.874;2022-11-30T00:39:18;100228.84;;;3.56;100.00
60676;BME280;46716;38.014;-7.874;2022-11-30T00:41:19;100215.03;;;3.47;100.00
60676;BME280;46716;38.014;-7.874;2022-11-30T00:43:20;100219.34;;;3.51;100.00
60676;BME280;46716;38.014;-7.874;2022-11-30T00:45:21;100205.53;;;3.41;100.00
60676;BME280;46716;38.014;-7.874;2022-11-30T00:47:22;100205.53;;;3.43;100.00
60676;BME280;46716;38.014;-7.874;2022-11-30T00:49:23;100209.00;;;3.42;100.00
60676;BME280;46716;38.014;-7.874;2022-11-30T00:51:24;100195.16;;;3.35;100.00
60676;BME280;46716;38.014;-7.874;2022-11-30T00:53:25;100198.63;;;3.37;100.00
60676;BME280;46716;38.014;-7.874;2022-11-30T00:55:26;100194.28;;;3.35;100.00
60676;BME280;46716;38.014;-7.874;2022-11-30T00:57:27;100194.22;;;3.41;100.00
60676;BME280;46716;38.014;-7.874;2022-11-30T00:59:28;100203.72;;;3.47;100.00
60676;BME280;46716;38.014;-7.874;2022-11-30T01:01:29;100195.88;;;3.48;100.00
60676;BME280;46716;38.014;-7.874;2022-11-30T01:03:31;100187.25;;;3.43;100.00
60676;BME280;46716;38.014;-7.874;2022-11-30T01:05:33;100195.03;;;3.48;100.00
60676;BME280;46716;38.014;-7.874;2022-11-30T01:07:34;100192.41;;;3.49;100.00
60676;BME280;46716;38.014;-7.874;2022-11-30T01:09:35;100194.09;;;3.55;100.00
60676;BME280;46716;38.014;-7.874;2022-11-30T01:11:36;100188.91;;;3.50;100.00
60676;BME280;46716;38.014;-7.874;2022-11-30T01:13:37;100182.75;;;3.54;100.00
60676;BME280;46716;38.014;-7.874;2022-11-30T01:15:40;100190.56;;;3.58;100.00
60676;BME280;46716;38.014;-7.874;2022-11-30T01:17:42;100185.34;;;3.56;100.00
60676;BME280;46716;38.014;-7.874;2022-11-30T01:19:43;100182.75;;;3.54;100.00
60676;BME280;46716;38.014;-7.874;2022-11-30T01:21:43;100193.25;;;3.51;100.00
60676;BME280;46716;38.014;-7.874;2022-11-30T01:23:45;100182.88;;;3.44;100.00
60676;BME280;46716;38.014;-7.874;2022-11-30T01:25:53;100189.00;;;3.42;100.00
60676;BME280;46716;38.014;-7.874;2022-11-30T01:27:54;100186.41;;;3.39;100.00
60676;BME280;46716;38.014;-7.874;2022-11-30T01:29:55;100182.09;;;3.37;100.00
60676;BME280;46716;38.014;-7.874;2022-11-30T01:31:56;100170.00;;;3.29;100.00
60676;BME280;46716;38.014;-7.874;2022-11-30T01:33:57;100180.47;;;3.28;100.00
60676;BME280;46716;38.014;-7.874;2022-11-30T01:36:06;100185.69;;;3.26;100.00
60676;BME280;46716;38.014;-7.874;2022-11-30T01:38:07;100178.72;;;3.28;100.00
60676;BME280;46716;38.014;-7.874;2022-11-30T01:40:09;100177.84;;;3.28;100.00
60676;BME280;46716;38.014;-7.874;2022-11-30T01:42:14;100176.97;;;3.27;100.00
60676;BME280;46716;38.014;-7.874;2022-11-30T01:48:26;100170.94;;;3.24;100.00
60676;BME280;46716;38.014;-7.874;2022-11-30T01:50:29;100149.63;;;2.83;100.00
60676;BME280;46716;38.014;-7.874;2022-11-30T01:52:36;100140.19;;;2.68;100.00
60676;BME280;46716;38.014;-7.874;2022-11-30T01:55:02;100142.78;;;2.71;100.00
60676;BME280;46716;38.014;-7.874;2022-11-30T01:57:12;100142.81;;;2.66;100.00
60676;BME280;46716;38.014;-7.874;2022-11-30T01:59:15;100152.38;;;2.69;100.00
60676;BME280;46716;38.014;-7.874;2022-11-30T02:01:17;100149.75;;;2.70;100.00
60676;BME280;46716;38.014;-7.874;2022-11-30T02:03:42;100145.41;;;2.71;100.00
60676;BME280;46716;38.014;-7.874;2022-11-30T02:05:47;100137.63;;;2.66;100.00
60676;BME280;46716;38.014;-7.874;2022-11-30T02:07:48;100136.63;;;2.78;100.00
60676;BME280;46716;38.014;-7.874;2022-11-30T02:09:49;100139.16;;;2.86;100.00
60676;BME280;46716;38.014;-7.874;2022-11-30T02:11:51;100139.03;;;3.01;100.00
60676;BME280;46716;38.014;-7.874;2022-11-30T02:16:38;100135.44;;;3.12;100.00
60676;BME280;46716;38.014;-7.874;2022-11-30T02:21:18;100147.53;;;3.19;100.00
60676;BME280;46716;38.014;-7.874;2022-11-30T02:25:55;100126.47;;;3.33;100.00
60676;BME280;46716;38.014;-7.874;2022-11-30T02:30:43;100136.78;;;3.44;100.00
60676;BME280;46716;38.014;-7.874;2022-11-30T02:32:51;100128.16;;;3.39;100.00
60676;BME280;46716;38.014;-7.874;2022-11-30T02:34:55;100138.63;;;3.36;100.00
60676;BME280;46716;38.014;-7.874;2022-11-30T02:36:58;100124.91;;;3.18;100.00
60676;BME280;46716;38.014;-7.874;2022-11-30T02:39:00;100138.00;;;3.15;100.00
60676;BME280;46716;38.014;-7.874;2022-11-30T02:41:01;100122.50;;;2.99;100.00
60676;BME280;46716;38.014;-7.874;2022-11-30T02:43:05;100133.91;;;2.92;100.00
60676;BME280;46716;38.014;-7.874;2022-11-30T02:45:06;100138.38;;;2.81;100.00
60676;BME280;46716;38.014;-7.874;2022-11-30T02:47:26;100145.41;;;2.71;100.00
60676;BME280;46716;38.014;-7.874;2022-11-30T02:49:40;100147.25;;;2.58;100.00
60676;BME280;46716;38.014;-7.874;2022-11-30T02:51:44;100140.41;;;2.44;100.00
60676;BME280;46716;38.014;-7.874;2022-11-30T02:53:45;100148.28;;;2.38;100.00
60676;BME280;46716;38.014;-7.874;2022-11-30T02:55:47;100147.47;;;2.33;100.00
60676;BME280;46716;38.014;-7.874;2022-11-30T02:57:48;100137.09;;;2.28;100.00
60676;BME280;46716;38.014;-7.874;2022-11-30T02:59:49;100129.34;;;2.14;100.00
60676;BME280;46716;38.014;-7.874;2022-11-30T03:01:50;100124.19;;;2.08;100.00
60676;BME280;46716;38.014;-7.874;2022-11-30T03:03:51;100130.34;;;1.94;100.00
60676;BME280;46716;38.014;-7.874;2022-11-30T03:05:52;100130.44;;;1.83;100.00
60676;BME280;46716;38.014;-7.874;2022-11-30T03:07:53;100131.38;;;1.71;100.00
60676;BME280;46716;38.014;-7.874;2022-11-30T03:09:54;100126.22;;;1.59;100.00
60676;BME280;46716;38.014;-7.874;2022-11-30T03:11:55;100134.91;;;1.61;100.00
60676;BME280;46716;38.014;-7.874;2022-11-30T03:13:56;100112.44;;;1.44;100.00
60676;BME280;46716;38.014;-7.874;2022-11-30T03:15:57;100128.00;;;1.54;100.00
60676;BME280;46716;38.014;-7.874;2022-11-30T03:18:01;100107.19;;;1.50;100.00
60676;BME280;46716;38.014;-7.874;2022-11-30T03:20:02;100122.66;;;1.75;100.00
60676;BME280;46716;38.014;-7.874;2022-11-30T03:22:03;100112.09;;;2.00;100.00
60676;BME280;46716;38.014;-7.874;2022-11-30T03:24:05;100095.63;;;2.00;100.00
60676;BME280;46716;38.014;-7.874;2022-11-30T03:26:07;100109.41;;;2.11;100.00
60676;BME280;46716;38.014;-7.874;2022-11-30T03:28:08;100105.97;;;2.06;100.00
60676;BME280;46716;38.014;-7.874;2022-11-30T03:30:09;100108.63;;;2.00;100.00
60676;BME280;46716;38.014;-7.874;2022-11-30T03:32:10;100105.19;;;1.93;100.00
60676;BME280;46716;38.014;-7.874;2022-11-30T03:34:11;100096.56;;;1.89;100.00
60676;BME280;46716;38.014;-7.874;2022-11-30T03:36:12;100100.03;;;1.87;100.00
60676;BME280;46716;38.014;-7.874;2022-11-30T03:38:13;100110.44;;;1.90;100.00
60676;BME280;46716;38.014;-7.874;2022-11-30T03:40:14;100093.94;;;1.93;100.00
60676;BME280;46716;38.014;-7.874;2022-11-30T03:42:15;100087.84;;;1.95;100.00
60676;BME280;46716;38.014;-7.874;2022-11-30T03:44:16;100092.09;;;2.06;100.00
60676;BME280;46716;38.014;-7.874;2022-11-30T03:46:17;100099.00;;;2.10;100.00
60676;BME280;46716;38.014;-7.874;2022-11-30T03:48:18;100073.94;;;1.98;100.00
60676;BME280;46716;38.014;-7.874;2022-11-30T03:50:19;100092.91;;;2.11;100.00
60676;BME280;46716;38.014;-7.874;2022-11-30T03:52:20;100077.34;;;2.05;100.00
60676;BME280;46716;38.014;-7.874;2022-11-30T03:54:21;100076.53;;;1.98;100.00
60676;BME280;46716;38.014;-7.874;2022-11-30T03:56:23;100086.09;;;1.96;100.00
60676;BME280;46716;38.014;-7.874;2022-11-30T03:58:24;100058.47;;;1.76;100.00
60676;BME280;46716;38.014;-7.874;2022-11-30T04:00:25;100068.81;;;1.85;100.00
60676;BME280;46716;38.014;-7.874;2022-11-30T04:02:26;100068.81;;;1.82;100.00
60676;BME280;46716;38.014;-7.874;2022-11-30T04:04:27;100067.13;;;1.78;100.00
60676;BME280;46716;38.014;-7.874;2022-11-30T04:06:28;100050.72;;;1.68;100.00
60676;BME280;46716;38.014;-7.874;2022-11-30T04:08:29;100074.00;;;1.87;100.00
60676;BME280;46716;38.014;-7.874;2022-11-30T04:10:30;100063.66;;;1.81;100.00
60676;BME280;46716;38.014;-7.874;2022-11-30T04:12:31;100081.00;;;1.82;100.00
60676;BME280;46716;38.014;-7.874;2022-11-30T04:14:32;100082.81;;;1.69;100.00
60676;BME280;46716;38.014;-7.874;2022-11-30T04:16:33;100086.28;;;1.64;100.00
60676;BME280;46716;38.014;-7.874;2022-11-30T04:18:35;100073.34;;;1.55;100.00
60676;BME280;46716;38.014;-7.874;2022-11-30T04:20:36;100090.66;;;1.64;100.00
60676;BME280;46716;38.014;-7.874;2022-11-30T04:22:37;100084.53;;;1.68;100.00
60676;BME280;46716;38.014;-7.874;2022-11-30T04:24:38;100077.63;;;1.66;100.00
60676;BME280;46716;38.014;-7.874;2022-11-30T04:26:39;100091.47;;;1.69;100.00
60676;BME280;46716;38.014;-7.874;2022-11-30T04:28:40;100094.13;;;1.61;100.00
60676;BME280;46716;38.014;-7.874;2022-11-30T04:30:42;100085.53;;;1.47;100.00
60676;BME280;46716;38.014;-7.874;2022-11-30T04:32:43;100081.31;;;1.24;100.00
60676;BME280;46716;38.014;-7.874;2022-11-30T04:34:44;100064.91;;;1.08;100.00
60676;BME280;46716;38.014;-7.874;2022-11-30T04:36:45;100077.06;;;1.07;100.00
60676;BME280;46716;38.014;-7.874;2022-11-30T04:38:47;100091.75;;;1.13;100.00
60676;BME280;46716;38.014;-7.874;2022-11-30T04:40:48;100096.09;;;1.09;100.00
60676;BME280;46716;38.014;-7.874;2022-11-30T04:42:49;100079.66;;;0.99;100.00
60676;BME280;46716;38.014;-7.874;2022-11-30T04:44:50;100076.19;;;0.97;100.00
60676;BME280;46716;38.014;-7.874;2022-11-30T04:46:51;100078.81;;;0.91;100.00
60676;BME280;46716;38.014;-7.874;2022-11-30T04:48:52;100079.69;;;0.87;100.00
60676;BME280;46716;38.014;-7.874;2022-11-30T04:50:53;100065.88;;;0.71;100.00
60676;BME280;46716;38.014;-7.874;2022-11-30T04:52:55;100077.16;;;0.68;100.00
60676;BME280;46716;38.014;-7.874;2022-11-30T04:54:56;100080.66;;;0.66;100.00
60676;BME280;46716;38.014;-7.874;2022-11-30T04:56:57;100079.75;;;0.70;100.00
60676;BME280;46716;38.014;-7.874;2022-11-30T04:59:00;100093.56;;;0.83;100.00
60676;BME280;46716;38.014;-7.874;2022-11-30T05:01:01;100089.25;;;0.83;100.00
60676;BME280;46716;38.014;-7.874;2022-11-30T05:03:02;100076.25;;;0.85;100.00
60676;BME280;46716;38.014;-7.874;2022-11-30T05:05:04;100090.97;;;0.92;100.00
60676;BME280;46716;38.014;-7.874;2022-11-30T05:07:05;100092.66;;;0.99;100.00
60676;BME280;46716;38.014;-7.874;2022-11-30T05:09:06;100088.34;;;0.98;100.00
60676;BME280;46716;38.014;-7.874;2022-11-30T05:11:07;100077.09;;;0.95;100.00
60676;BME280;46716;38.014;-7.874;2022-11-30T05:13:08;100085.75;;;0.98;100.00
60676;BME280;46716;38.014;-7.874;2022-11-30T05:15:09;100070.19;;;0.89;100.00
60676;BME280;46716;38.014;-7.874;2022-11-30T05:17:10;100078.81;;;0.91;100.00
60676;BME280;46716;38.014;-7.874;2022-11-30T05:19:11;100071.91;;;0.88;100.00
60676;BME280;46716;38.014;-7.874;2022-11-30T05:21:13;100086.59;;;0.96;100.00
60676;BME280;46716;38.014;-7.874;2022-11-30T05:23:15;100084.88;;;0.90;100.00
60676;BME280;46716;38.014;-7.874;2022-11-30T05:25:16;100080.56;;;0.94;100.00
60676;BME280;46716;38.014;-7.874;2022-11-30T05:27:17;100084.88;;;0.92;100.00
60676;BME280;46716;38.014;-7.874;2022-11-30T05:29:18;100089.22;;;0.91;100.00
60676;BME280;46716;38.014;-7.874;2022-11-30T05:31:18;100088.38;;;0.84;100.00
60676;BME280;46716;38.014;-7.874;2022-11-30T05:33:19;100086.66;;;0.85;100.00
60676;BME280;46716;38.014;-7.874;2022-11-30T05:35:20;100086.66;;;0.82;100.00
60676;BME280;46716;38.014;-7.874;2022-11-30T05:37:21;100092.69;;;0.87;100.00
60676;BME280;46716;38.014;-7.874;2022-11-30T05:39:22;100076.28;;;0.79;100.00
60676;BME280;46716;38.014;-7.874;2022-11-30T05:41:23;100064.16;;;0.71;100.00
60676;BME280;46716;38.014;-7.874;2022-11-30T05:43:24;100068.47;;;0.75;100.00
60676;BME280;46716;38.014;-7.874;2022-11-30T05:45:25;100072.78;;;0.77;100.00
60676;BME280;46716;38.014;-7.874;2022-11-30T05:47:26;100080.66;;;0.66;100.00
60676;BME280;46716;38.014;-7.874;2022-11-30T05:49:27;100084.97;;;0.67;100.00
60676;BME280;46716;38.014;-7.874;2022-11-30T05:51:28;100072.84;;;0.59;100.00
60676;BME280;46716;38.014;-7.874;2022-11-30T05:53:29;100081.47;;;0.69;100.00
60676;BME280;46716;38.014;-7.874;2022-11-30T05:55:29;100067.59;;;0.72;100.00
60676;BME280;46716;38.014;-7.874;2022-11-30T05:57:35;100071.97;;;0.74;100.00
60676;BME280;46716;38.014;-7.874;2022-11-30T05:59:36;100073.69;;;0.71;100.00
60676;BME280;46716;38.014;-7.874;2022-11-30T06:01:37;100062.41;;;0.73;100.00
60676;BME280;46716;38.014;-7.874;2022-11-30T06:03:38;100075.38;;;0.86;100.00
60676;BME280;46716;38.014;-7.874;2022-11-30T06:05:39;100075.38;;;0.92;100.00
60676;BME280;46716;38.014;-7.874;2022-11-30T06:07:40;100074.44;;;1.06;100.00
60676;BME280;46716;38.014;-7.874;2022-11-30T06:09:41;100078.75;;;1.18;100.00
60676;BME280;46716;38.014;-7.874;2022-11-30T06:11:42;100068.28;;;1.25;100.00
60676;BME280;46716;38.014;-7.874;2022-11-30T06:13:43;100063.13;;;1.24;100.00
60676;BME280;46716;38.014;-7.874;2022-11-30T06:15:44;100062.31;;;1.05;100.00
60676;BME280;46716;38.014;-7.874;2022-11-30T06:17:44;100059.78;;;0.92;100.00
60676;BME280;46716;38.014;-7.874;2022-11-30T06:19:45;100058.91;;;0.87;100.00
60676;BME280;46716;38.014;-7.874;2022-11-30T06:21:46;100056.31;;;0.88;100.00
60676;BME280;46716;38.014;-7.874;2022-11-30T06:23:47;100065.78;;;1.00;100.00
60676;BME280;46716;38.014;-7.874;2022-11-30T06:25:48;100064.06;;;1.03;100.00
60676;BME280;46716;38.014;-7.874;2022-11-30T06:27:49;100052.78;;;1.05;100.00
60676;BME280;46716;38.014;-7.874;2022-11-30T06:29:50;100067.50;;;1.08;100.00
60676;BME280;46716;38.014;-7.874;2022-11-30T06:31:51;100061.47;;;0.98;100.00
60676;BME280;46716;38.014;-7.874;2022-11-30T06:33:55;100064.09;;;0.87;100.00
60676;BME280;46716;38.014;-7.874;2022-11-30T06:35:56;100058.06;;;0.82;100.00
60676;BME280;46716;38.014;-7.874;2022-11-30T06:37:57;100058.97;;;0.78;100.00
60676;BME280;46716;38.014;-7.874;2022-11-30T06:40:00;100052.91;;;0.72;100.00
60676;BME280;46716;38.014;-7.874;2022-11-30T06:42:01;100036.47;;;0.64;100.00
60676;BME280;46716;38.014;-7.874;2022-11-30T06:44:01;100050.31;;;0.63;100.00
60676;BME280;46716;38.014;-7.874;2022-11-30T06:46:07;100065.91;;;0.57;100.00
60676;BME280;46716;38.014;-7.874;2022-11-30T06:48:08;100065.94;;;0.49;100.00
60676;BME280;46716;38.014;-7.874;2022-11-30T06:50:11;100064.22;;;0.42;100.00
60676;BME280;46716;38.014;-7.874;2022-11-30T06:52:12;100069.38;;;0.46;100.00
60676;BME280;46716;38.014;-7.874;2022-11-30T06:54:13;100070.25;;;0.48;100.00
60676;BME280;46716;38.014;-7.874;2022-11-30T06:56:14;100080.66;;;0.53;100.00
60676;BME280;46716;38.014;-7.874;2022-11-30T06:58:15;100081.50;;;0.58;100.00
60676;BME280;46716;38.014;-7.874;2022-11-30T07:00:16;100073.69;;;0.60;100.00
60676;BME280;46716;38.014;-7.874;2022-11-30T07:02:18;100085.84;;;0.62;100.00
60676;BME280;46716;38.014;-7.874;2022-11-30T07:04:19;100079.78;;;0.62;100.00
60676;BME280;46716;38.014;-7.874;2022-11-30T07:06:20;100081.47;;;0.69;100.00
60676;BME280;46716;38.014;-7.874;2022-11-30T07:08:21;100069.38;;;0.67;100.00
60676;BME280;46716;38.014;-7.874;2022-11-30T07:10:22;100072.81;;;0.73;100.00
60676;BME280;46716;38.014;-7.874;2022-11-30T07:12:24;100058.09;;;0.72;100.00
60676;BME280;46716;38.014;-7.874;2022-11-30T07:14:25;100079.69;;;0.90;100.00
60676;BME280;46716;38.014;-7.874;2022-11-30T07:16:26;100071.91;;;0.87;100.00
60676;BME280;46716;38.014;-7.874;2022-11-30T07:18:27;100077.09;;;0.93;100.00
60676;BME280;46716;38.014;-7.874;2022-11-30T07:20:28;100065.81;;;0.97;100.00
60676;BME280;46716;38.014;-7.874;2022-11-30T07:22:29;100062.38;;;0.89;100.00
60676;BME280;46716;38.014;-7.874;2022-11-30T07:24:30;100070.19;;;0.86;100.00
60676;BME280;46716;38.014;-7.874;2022-11-30T07:26:49;100089.19;;;0.94;100.00
60676;BME280;46716;38.014;-7.874;2022-11-30T07:28:51;100090.06;;;0.99;100.00
60676;BME280;46716;38.014;-7.874;2022-11-30T07:30:57;100083.09;;;1.05;100.00
60676;BME280;46716;38.014;-7.874;2022-11-30T07:32:58;100079.66;;;1.09;100.00
60676;BME280;46716;38.014;-7.874;2022-11-30T07:34:59;100093.50;;;1.11;100.00
60676;BME280;46716;38.014;-7.874;2022-11-30T07:37:00;100090.88;;;1.17;100.00
60676;BME280;46716;38.014;-7.874;2022-11-30T07:39:02;100078.72;;;1.21;100.00
60676;BME280;46716;38.014;-7.874;2022-11-30T07:41:04;100103.81;;;1.33;100.00
60676;BME280;46716;38.014;-7.874;2022-11-30T07:43:05;100099.47;;;1.33;100.00
60676;BME280;46716;38.014;-7.874;2022-11-30T07:45:06;100105.53;;;1.37;100.00
60676;BME280;46716;38.014;-7.874;2022-11-30T07:47:08;100095.13;;;1.38;100.00
60676;BME280;46716;38.014;-7.874;2022-11-30T07:49:09;100095.09;;;1.43;100.00
60676;BME280;46716;38.014;-7.874;2022-11-30T07:51:17;100104.53;;;1.60;100.00
60676;BME280;46716;38.014;-7.874;2022-11-30T07:53:18;100102.72;;;1.76;100.00
60676;BME280;46716;38.014;-7.874;2022-11-30T07:55:19;100093.97;;;1.89;100.00
60676;BME280;46716;38.014;-7.874;2022-11-30T07:57:23;100101.59;;;2.13;100.00
60676;BME280;46716;38.014;-7.874;2022-11-30T07:59:23;100101.41;;;2.35;100.00
60676;BME280;46716;38.014;-7.874;2022-11-30T08:01:27;100093.53;;;2.44;100.00
60676;BME280;46716;38.014;-7.874;2022-11-30T08:03:28;100095.28;;;2.40;100.00
60676;BME280;46716;38.014;-7.874;2022-11-30T08:05:29;100097.16;;;2.24;100.00
60676;BME280;46716;38.014;-7.874;2022-11-30T08:07:30;100089.47;;;2.12;100.00
60676;BME280;46716;38.014;-7.874;2022-11-30T08:09:31;100077.22;;;2.19;100.00
60676;BME280;46716;38.014;-7.874;2022-11-30T08:11:34;100097.84;;;2.45;100.00
60676;BME280;46716;38.014;-7.874;2022-11-30T08:13:35;100109.75;;;2.74;100.00
60676;BME280;46716;38.014;-7.874;2022-11-30T08:15:36;100121.53;;;3.08;100.00
60676;BME280;46716;38.014;-7.874;2022-11-30T08:17:37;100115.97;;;3.38;100.00
60676;BME280;46716;38.014;-7.874;2022-11-30T08:19:38;100107.13;;;3.50;100.00
60676;BME280;46716;38.014;-7.874;2022-11-30T08:21:39;100107.78;;;3.66;100.00
60676;BME280;46716;38.014;-7.874;2022-11-30T08:23:42;100110.94;;;3.88;100.00
60676;BME280;46716;38.014;-7.874;2022-11-30T08:25:43;100104.50;;;4.13;100.00
60676;BME280;46716;38.014;-7.874;2022-11-30T08:27:44;100091.19;;;4.28;100.00
60676;BME280;46716;38.014;-7.874;2022-11-30T08:29:46;100117.78;;;4.52;100.00
60676;BME280;46716;38.014;-7.874;2022-11-30T08:31:47;100105.50;;;4.56;100.00
60676;BME280;46716;38.014;-7.874;2022-11-30T08:33:48;100110.63;;;4.64;100.00
60676;BME280;46716;38.014;-7.874;2022-11-30T08:35:49;100111.31;;;4.72;100.00
60676;BME280;46716;38.014;-7.874;2022-11-30T08:37:50;100123.16;;;4.93;100.00
60676;BME280;46716;38.014;-7.874;2022-11-30T08:39:51;100115.88;;;5.10;100.00
60676;BME280;46716;38.014;-7.874;2022-11-30T08:41:52;100110.97;;;5.37;100.00
60676;BME280;46716;38.014;-7.874;2022-11-30T08:43:53;100093.50;;;5.37;100.00
60676;BME280;46716;38.014;-7.874;2022-11-30T08:45:54;100106.38;;;5.04;100.00
60676;BME280;46716;38.014;-7.874;2022-11-30T08:47:55;100105.75;;;4.92;100.00
60676;BME280;46716;38.014;-7.874;2022-11-30T08:49:56;100098.84;;;4.38;100.00
60676;BME280;46716;38.014;-7.874;2022-11-30T08:51:57;100103.00;;;3.96;100.00
60676;BME280;46716;38.014;-7.874;2022-11-30T08:53:58;100101.19;;;4.01;100.00
60676;BME280;46716;38.014;-7.874;2022-11-30T08:56:04;100100.59;;;4.39;100.00
60676;BME280;46716;38.014;-7.874;2022-11-30T08:58:06;100108.34;;;4.94;100.00
60676;BME280;46716;38.014;-7.874;2022-11-30T09:00:07;100099.16;;;5.17;100.00
60676;BME280;46716;38.014;-7.874;2022-11-30T09:02:10;100111.34;;;5.61;100.00
60676;BME280;46716;38.014;-7.874;2022-11-30T09:04:12;100109.06;;;5.85;100.00
60676;BME280;46716;38.014;-7.874;2022-11-30T09:06:16;100120.22;;;6.32;100.00
60676;BME280;46716;38.014;-7.874;2022-11-30T09:08:17;100099.59;;;6.53;100.00
60676;BME280;46716;38.014;-7.874;2022-11-30T09:10:19;100121.28;;;6.93;100.00
60676;BME280;46716;38.014;-7.874;2022-11-30T09:12:20;100127.22;;;7.32;100.00
60676;BME280;46716;38.014;-7.874;2022-11-30T09:14:21;100117.69;;;7.59;100.00
60676;BME280;46716;38.014;-7.874;2022-11-30T09:16:22;100129.84;;;7.92;100.00
60676;BME280;46716;38.014;-7.874;2022-11-30T09:18:24;100124.13;;;8.06;100.00
60676;BME280;46716;38.014;-7.874;2022-11-30T09:20:24;100127.00;;;8.27;100.00
60676;BME280;46716;38.014;-7.874;2022-11-30T09:22:26;100132.72;;;8.40;100.00
60676;BME280;46716;38.014;-7.874;2022-11-30T09:24:27;100126.78;;;8.60;100.00
60676;BME280;46716;38.014;-7.874;2022-11-30T09:26:28;100133.34;;;8.74;100.00
60676;BME280;46716;38.014;-7.874;2022-11-30T09:28:29;100132.72;;;8.93;100.00
60676;BME280;46716;38.014;-7.874;2022-11-30T09:30:30;100127.31;;;9.21;100.00
60676;BME280;46716;38.014;-7.874;2022-11-30T09:32:31;100129.00;;;9.48;100.00
60676;BME280;46716;38.014;-7.874;2022-11-30T09:34:32;100116.09;;;9.64;98.84
60676;BME280;46716;38.014;-7.874;2022-11-30T09:36:33;100116.16;;;9.85;98.10
60676;BME280;46716;38.014;-7.874;2022-11-30T09:38:36;100119.09;;;10.22;97.94
60676;BME280;46716;38.014;-7.874;2022-11-30T09:40:39;100118.47;;;10.60;95.97
60676;BME280;46716;38.014;-7.874;2022-11-30T09:42:56;100128.66;;;11.30;92.46
60676;BME280;46716;38.014;-7.874;2022-11-30T09:45:13;100127.50;;;11.94;87.58
60676;BME280;46716;38.014;-7.874;2022-11-30T09:48:17;100123.69;;;13.23;76.57
60676;BME280;46716;38.014;-7.874;2022-11-30T09:50:20;100123.75;;;14.20;70.03
60676;BME280;46716;38.014;-7.874;2022-11-30T09:52:43;100128.75;;;15.17;68.49
60676;BME280;46716;38.014;-7.874;2022-11-30T09:54:46;100127.59;;;15.92;66.55
60676;BME280;46716;38.014;-7.874;2022-11-30T09:56:49;100114.09;;;16.51;63.32
60676;BME280;46716;38.014;-7.874;2022-11-30T09:59:18;100118.81;;;16.86;62.85
60676;BME280;46716;38.014;-7.874;2022-11-30T10:01:20;100115.59;;;16.68;62.70
60676;BME280;46716;38.014;-7.874;2022-11-30T10:03:22;100119.41;;;16.10;63.15
60676;BME280;46716;38.014;-7.874;2022-11-30T10:10:15;100126.66;;;14.62;65.65
60676;BME280;46716;38.014;-7.874;2022-11-30T10:12:31;100116.47;;;14.24;67.13
60676;BME280;46716;38.014;-7.874;2022-11-30T10:14:59;100123.25;;;14.60;67.78
60676;BME280;46716;38.014;-7.874;2022-11-30T10:24:17;100123.09;;;15.65;64.19
60676;BME280;46716;38.014;-7.874;2022-11-30T10:26:35;100122.28;;;15.50;64.87
60676;BME280;46716;38.014;-7.874;2022-11-30T10:28:49;100111.66;;;15.36;65.59
60676;BME280;46716;38.014;-7.874;2022-11-30T10:30:51;100104.88;;;15.45;65.36
60676;BME280;46716;38.014;-7.874;2022-11-30T10:32:54;100096.00;;;15.73;64.64
60676;BME280;46716;38.014;-7.874;2022-11-30T10:35:02;100105.97;;;15.84;63.60
60676;BME280;46716;38.014;-7.874;2022-11-30T10:37:17;100107.59;;;16.14;63.82
60676;BME280;46716;38.014;-7.874;2022-11-30T10:39:26;100108.19;;;16.46;62.37
60676;BME280;46716;38.014;-7.874;2022-11-30T10:41:34;100095.31;;;16.52;62.09
60676;BME280;46716;38.014;-7.874;2022-11-30T10:44:10;100090.66;;;16.69;61.50
60676;BME280;46716;38.014;-7.874;2022-11-30T10:46:27;100095.16;;;17.08;60.91
60676;BME280;46716;38.014;-7.874;2022-11-30T10:48:42;100084.44;;;17.47;59.92
60676;BME280;46716;38.014;-7.874;2022-11-30T10:50:45;100077.81;;;17.77;57.85
60676;BME280;46716;38.014;-7.874;2022-11-30T10:52:50;100072.13;;;17.57;57.73
60676;BME280;46716;38.014;-7.874;2022-11-30T10:54:54;100077.09;;;16.98;58.95
60676;BME280;46716;38.014;-7.874;2022-11-30T10:56:58;100082.88;;;16.53;60.08
60676;BME280;46716;38.014;-7.874;2022-11-30T10:59:06;100081.22;;;16.24;61.18
60676;BME280;46716;38.014;-7.874;2022-11-30T11:01:31;100084.91;;;15.94;61.69